sensor_id;sensor_type;location;lat;lon;timestamp;P1;durP1;ratioP1;P2;durP2;ratioP2
28796;SDS011;24974;54.444;18.560;2024-01-30T00:02:14;58.90;;;27.83;;
28796;SDS011;24974;54.444;18.560;2024-01-30T00:04:45;58.38;;;27.75;;
28796;SDS011;24974;54.444;18.560;2024-01-30T00:07:15;59.28;;;27.42;;
28796;SDS011;24974;54.444;18.560;2024-01-30T00:09:47;52.42;;;27.77;;
28796;SDS011;24974;54.444;18.560;2024-01-30T00:12:20;56.40;;;29.02;;
28796;SDS011;24974;54.444;18.560;2024-01-30T00:14:51;61.42;;;28.85;;
28796;SDS011;24974;54.444;18.560;2024-01-30T00:17:22;60.90;;;29.67;;
28796;SDS011;24974;54.444;18.560;2024-01-30T00:19:55;59.22;;;28.30;;
28796;SDS011;24974;54.444;18.560;2024-01-30T00:22:26;63.10;;;30.77;;
28796;SDS011;24974;54.444;18.560;2024-01-30T00:24:57;62.55;;;29.45;;
28796;SDS011;24974;54.444;18.560;2024-01-30T00:27:28;54.95;;;29.73;;
28796;SDS011;24974;54.444;18.560;2024-01-30T00:29:59;56.72;;;28.40;;
28796;SDS011;24974;54.444;18.560;2024-01-30T00:32:30;61.85;;;29.58;;
28796;SDS011;24974;54.444;18.560;2024-01-30T00:35:00;66.38;;;29.30;;
28796;SDS011;24974;54.444;18.560;2024-01-30T00:37:31;59.80;;;29.08;;
28796;SDS011;24974;54.444;18.560;2024-01-30T00:40:02;54.50;;;26.33;;
28796;SDS011;24974;54.444;18.560;2024-01-30T00:42:34;63.00;;;28.02;;
28796;SDS011;24974;54.444;18.560;2024-01-30T00:45:05;55.13;;;27.70;;
28796;SDS011;24974;54.444;18.560;2024-01-30T00:47:37;60.33;;;28.75;;
28796;SDS011;24974;54.444;18.560;2024-01-30T00:50:08;65.88;;;33.95;;
28796;SDS011;24974;54.444;18.560;2024-01-30T00:52:39;57.83;;;30.67;;
28796;SDS011;24974;54.444;18.560;2024-01-30T00:55:11;75.97;;;36.28;;
28796;SDS011;24974;54.444;18.560;2024-01-30T00:57:43;63.05;;;31.40;;
28796;SDS011;24974;54.444;18.560;2024-01-30T01:00:14;67.57;;;32.42;;
28796;SDS011;24974;54.444;18.560;2024-01-30T01:02:48;65.07;;;33.35;;
28796;SDS011;24974;54.444;18.560;2024-01-30T01:05:18;68.93;;;32.05;;
28796;SDS011;24974;54.444;18.560;2024-01-30T01:07:49;73.30;;;34.03;;
28796;SDS011;24974;54.444;18.560;2024-01-30T01:10:20;62.95;;;33.28;;
28796;SDS011;24974;54.444;18.560;2024-01-30T01:12:51;66.88;;;33.08;;
28796;SDS011;24974;54.444;18.560;2024-01-30T01:15:22;64.45;;;31.17;;
28796;SDS011;24974;54.444;18.560;2024-01-30T01:17:53;69.13;;;35.53;;
28796;SDS011;24974;54.444;18.560;2024-01-30T01:20:24;75.95;;;35.25;;
28796;SDS011;24974;54.444;18.560;2024-01-30T01:22:55;69.82;;;35.40;;
28796;SDS011;24974;54.444;18.560;2024-01-30T01:25:26;71.15;;;34.05;;
28796;SDS011;24974;54.444;18.560;2024-01-30T01:27:57;74.43;;;37.28;;
28796;SDS011;24974;54.444;18.560;2024-01-30T01:30:28;74.25;;;36.63;;
28796;SDS011;24974;54.444;18.560;2024-01-30T01:32:59;76.63;;;38.08;;
28796;SDS011;24974;54.444;18.560;2024-01-30T01:35:32;73.28;;;37.83;;
28796;SDS011;24974;54.444;18.560;2024-01-30T01:38:03;77.72;;;37.05;;
28796;SDS011;24974;54.444;18.560;2024-01-30T01:40:34;77.38;;;38.17;;
28796;SDS011;24974;54.444;18.560;2024-01-30T01:43:05;83.00;;;40.28;;
28796;SDS011;24974;54.444;18.560;2024-01-30T01:45:36;81.85;;;39.78;;
28796;SDS011;24974;54.444;18.560;2024-01-30T01:48:07;81.53;;;41.13;;
28796;SDS011;24974;54.444;18.560;2024-01-30T01:50:40;85.38;;;40.17;;
28796;SDS011;24974;54.444;18.560;2024-01-30T01:53:13;85.65;;;39.05;;
28796;SDS011;24974;54.444;18.560;2024-01-30T01:55:45;73.50;;;39.33;;
28796;SDS011;24974;54.444;18.560;2024-01-30T01:58:17;87.63;;;40.15;;
28796;SDS011;24974;54.444;18.560;2024-01-30T02:00:50;76.95;;;37.92;;
28796;SDS011;24974;54.444;18.560;2024-01-30T02:03:22;84.20;;;40.42;;
28796;SDS011;24974;54.444;18.560;2024-01-30T02:05:52;80.80;;;39.72;;
28796;SDS011;24974;54.444;18.560;2024-01-30T02:08:25;89.35;;;40.58;;
28796;SDS011;24974;54.444;18.560;2024-01-30T02:10:57;84.97;;;41.72;;
28796;SDS011;24974;54.444;18.560;2024-01-30T02:13:28;87.57;;;41.08;;
28796;SDS011;24974;54.444;18.560;2024-01-30T02:15:58;84.10;;;40.53;;
28796;SDS011;24974;54.444;18.560;2024-01-30T02:18:29;86.07;;;39.83;;
28796;SDS011;24974;54.444;18.560;2024-01-30T02:21:04;81.40;;;40.03;;
28796;SDS011;24974;54.444;18.560;2024-01-30T02:23:35;81.95;;;40.35;;
28796;SDS011;24974;54.444;18.560;2024-01-30T02:26:07;77.70;;;39.95;;
28796;SDS011;24974;54.444;18.560;2024-01-30T02:28:38;79.05;;;40.08;;
28796;SDS011;24974;54.444;18.560;2024-01-30T02:31:09;82.75;;;41.53;;
28796;SDS011;24974;54.444;18.560;2024-01-30T02:33:40;88.20;;;42.33;;
28796;SDS011;24974;54.444;18.560;2024-01-30T02:36:11;78.40;;;40.97;;
28796;SDS011;24974;54.444;18.560;2024-01-30T02:38:41;85.40;;;40.78;;
28796;SDS011;24974;54.444;18.560;2024-01-30T02:41:12;82.18;;;40.92;;
28796;SDS011;24974;54.444;18.560;2024-01-30T02:43:43;81.85;;;39.92;;
28796;SDS011;24974;54.444;18.560;2024-01-30T02:46:14;87.40;;;41.22;;
28796;SDS011;24974;54.444;18.560;2024-01-30T02:48:45;80.97;;;40.67;;
28796;SDS011;24974;54.444;18.560;2024-01-30T02:51:16;83.90;;;39.70;;
28796;SDS011;24974;54.444;18.560;2024-01-30T02:53:47;82.95;;;39.15;;
28796;SDS011;24974;54.444;18.560;2024-01-30T02:56:18;76.88;;;38.20;;
28796;SDS011;24974;54.444;18.560;2024-01-30T02:58:49;74.30;;;40.30;;
28796;SDS011;24974;54.444;18.560;2024-01-30T03:01:19;75.97;;;39.63;;
28796;SDS011;24974;54.444;18.560;2024-01-30T03:03:50;78.15;;;40.50;;
28796;SDS011;24974;54.444;18.560;2024-01-30T03:06:21;83.10;;;38.97;;
28796;SDS011;24974;54.444;18.560;2024-01-30T03:08:53;78.20;;;37.80;;
28796;SDS011;24974;54.444;18.560;2024-01-30T03:11:24;75.47;;;36.50;;
28796;SDS011;24974;54.444;18.560;2024-01-30T03:13:55;66.90;;;35.88;;
28796;SDS011;24974;54.444;18.560;2024-01-30T03:16:26;78.13;;;36.90;;
28796;SDS011;24974;54.444;18.560;2024-01-30T03:18:57;70.57;;;36.67;;
28796;SDS011;24974;54.444;18.560;2024-01-30T03:21:28;76.30;;;35.72;;
28796;SDS011;24974;54.444;18.560;2024-01-30T03:23:59;81.25;;;36.60;;
28796;SDS011;24974;54.444;18.560;2024-01-30T03:26:30;77.28;;;37.97;;
28796;SDS011;24974;54.444;18.560;2024-01-30T03:29:01;82.07;;;38.30;;
28796;SDS011;24974;54.444;18.560;2024-01-30T03:31:32;79.05;;;38.50;;
28796;SDS011;24974;54.444;18.560;2024-01-30T03:34:03;78.22;;;39.58;;
28796;SDS011;24974;54.444;18.560;2024-01-30T03:36:33;78.10;;;37.72;;
28796;SDS011;24974;54.444;18.560;2024-01-30T03:39:04;74.35;;;38.53;;
28796;SDS011;24974;54.444;18.560;2024-01-30T03:41:36;70.90;;;37.53;;
28796;SDS011;24974;54.444;18.560;2024-01-30T03:44:07;70.28;;;37.25;;
28796;SDS011;24974;54.444;18.560;2024-01-30T03:46:38;71.20;;;36.80;;
28796;SDS011;24974;54.444;18.560;2024-01-30T03:49:09;70.65;;;35.00;;
28796;SDS011;24974;54.444;18.560;2024-01-30T03:51:40;70.18;;;35.97;;
28796;SDS011;24974;54.444;18.560;2024-01-30T03:54:11;73.13;;;37.00;;
28796;SDS011;24974;54.444;18.560;2024-01-30T03:56:42;70.68;;;36.03;;
28796;SDS011;24974;54.444;18.560;2024-01-30T03:59:12;74.53;;;36.60;;
28796;SDS011;24974;54.444;18.560;2024-01-30T04:01:46;67.20;;;35.35;;
28796;SDS011;24974;54.444;18.560;2024-01-30T04:04:20;68.93;;;35.47;;
28796;SDS011;24974;54.444;18.560;2024-01-30T04:06:51;77.88;;;36.58;;
28796;SDS011;24974;54.444;18.560;2024-01-30T04:09:22;68.88;;;33.53;;
28796;SDS011;24974;54.444;18.560;2024-01-30T04:11:53;70.22;;;35.22;;
28796;SDS011;24974;54.444;18.560;2024-01-30T04:14:24;76.10;;;34.80;;
28796;SDS011;24974;54.444;18.560;2024-01-30T04:16:55;69.78;;;34.20;;
28796;SDS011;24974;54.444;18.560;2024-01-30T04:19:25;67.78;;;34.85;;
28796;SDS011;24974;54.444;18.560;2024-01-30T04:21:56;59.97;;;32.72;;
28796;SDS011;24974;54.444;18.560;2024-01-30T04:24:27;65.38;;;33.30;;
28796;SDS011;24974;54.444;18.560;2024-01-30T04:26:58;70.20;;;32.08;;
28796;SDS011;24974;54.444;18.560;2024-01-30T04:29:29;64.25;;;32.60;;
28796;SDS011;24974;54.444;18.560;2024-01-30T04:31:59;70.45;;;33.60;;
28796;SDS011;24974;54.444;18.560;2024-01-30T04:34:30;64.20;;;32.25;;
28796;SDS011;24974;54.444;18.560;2024-01-30T04:37:01;64.75;;;31.77;;
28796;SDS011;24974;54.444;18.560;2024-01-30T04:39:35;68.95;;;32.88;;
28796;SDS011;24974;54.444;18.560;2024-01-30T04:42:07;70.57;;;33.17;;
28796;SDS011;24974;54.444;18.560;2024-01-30T04:44:38;65.28;;;31.08;;
28796;SDS011;24974;54.444;18.560;2024-01-30T04:47:09;59.78;;;31.00;;
28796;SDS011;24974;54.444;18.560;2024-01-30T04:49:42;57.13;;;30.23;;
28796;SDS011;24974;54.444;18.560;2024-01-30T04:52:13;61.88;;;30.17;;
28796;SDS011;24974;54.444;18.560;2024-01-30T04:54:43;62.35;;;30.55;;
28796;SDS011;24974;54.444;18.560;2024-01-30T04:57:14;62.22;;;33.05;;
28796;SDS011;24974;54.444;18.560;2024-01-30T04:59:45;57.58;;;30.77;;
28796;SDS011;24974;54.444;18.560;2024-01-30T05:02:16;59.65;;;30.45;;
28796;SDS011;24974;54.444;18.560;2024-01-30T05:04:47;62.50;;;33.30;;
28796;SDS011;24974;54.444;18.560;2024-01-30T05:07:18;66.32;;;31.85;;
28796;SDS011;24974;54.444;18.560;2024-01-30T05:09:49;67.55;;;30.10;;
28796;SDS011;24974;54.444;18.560;2024-01-30T05:12:19;60.17;;;31.30;;
28796;SDS011;24974;54.444;18.560;2024-01-30T05:14:51;59.38;;;29.58;;
28796;SDS011;24974;54.444;18.560;2024-01-30T05:17:21;59.67;;;29.77;;
28796;SDS011;24974;54.444;18.560;2024-01-30T05:19:52;57.42;;;30.02;;
28796;SDS011;24974;54.444;18.560;2024-01-30T05:22:23;58.13;;;28.05;;
28796;SDS011;24974;54.444;18.560;2024-01-30T05:24:54;63.03;;;29.23;;
28796;SDS011;24974;54.444;18.560;2024-01-30T05:27:25;55.65;;;28.67;;
28796;SDS011;24974;54.444;18.560;2024-01-30T05:29:55;56.20;;;29.10;;
28796;SDS011;24974;54.444;18.560;2024-01-30T05:32:26;57.20;;;27.52;;
28796;SDS011;24974;54.444;18.560;2024-01-30T05:34:57;55.85;;;27.88;;
28796;SDS011;24974;54.444;18.560;2024-01-30T05:37:28;62.58;;;28.88;;
28796;SDS011;24974;54.444;18.560;2024-01-30T05:39:59;55.30;;;28.30;;
28796;SDS011;24974;54.444;18.560;2024-01-30T05:42:30;53.85;;;27.88;;
28796;SDS011;24974;54.444;18.560;2024-01-30T05:45:00;59.22;;;27.00;;
28796;SDS011;24974;54.444;18.560;2024-01-30T05:47:31;51.83;;;26.55;;
28796;SDS011;24974;54.444;18.560;2024-01-30T05:50:02;56.55;;;28.33;;
28796;SDS011;24974;54.444;18.560;2024-01-30T05:52:33;59.88;;;29.10;;
28796;SDS011;24974;54.444;18.560;2024-01-30T05:55:04;59.65;;;28.85;;
28796;SDS011;24974;54.444;18.560;2024-01-30T05:57:36;57.97;;;30.95;;
28796;SDS011;24974;54.444;18.560;2024-01-30T06:00:07;58.85;;;29.15;;
28796;SDS011;24974;54.444;18.560;2024-01-30T06:02:39;57.28;;;29.63;;
28796;SDS011;24974;54.444;18.560;2024-01-30T06:05:09;63.63;;;31.25;;
28796;SDS011;24974;54.444;18.560;2024-01-30T06:07:40;52.33;;;27.98;;
28796;SDS011;24974;54.444;18.560;2024-01-30T06:10:11;62.58;;;30.67;;
28796;SDS011;24974;54.444;18.560;2024-01-30T06:12:42;54.58;;;28.98;;
28796;SDS011;24974;54.444;18.560;2024-01-30T06:15:13;58.55;;;29.60;;
28796;SDS011;24974;54.444;18.560;2024-01-30T06:17:43;60.38;;;29.63;;
28796;SDS011;24974;54.444;18.560;2024-01-30T06:20:14;58.75;;;28.88;;
28796;SDS011;24974;54.444;18.560;2024-01-30T06:22:45;63.45;;;29.25;;
28796;SDS011;24974;54.444;18.560;2024-01-30T06:25:16;59.88;;;30.70;;
28796;SDS011;24974;54.444;18.560;2024-01-30T06:27:47;59.55;;;30.13;;
28796;SDS011;24974;54.444;18.560;2024-01-30T06:30:18;58.78;;;29.42;;
28796;SDS011;24974;54.444;18.560;2024-01-30T06:32:48;58.38;;;30.92;;
28796;SDS011;24974;54.444;18.560;2024-01-30T06:35:19;59.28;;;30.25;;
28796;SDS011;24974;54.444;18.560;2024-01-30T06:37:51;61.30;;;31.02;;
28796;SDS011;24974;54.444;18.560;2024-01-30T06:40:22;60.65;;;29.45;;
28796;SDS011;24974;54.444;18.560;2024-01-30T06:42:53;57.67;;;29.27;;
28796;SDS011;24974;54.444;18.560;2024-01-30T06:45:24;54.83;;;29.00;;
28796;SDS011;24974;54.444;18.560;2024-01-30T06:47:54;62.85;;;30.45;;
28796;SDS011;24974;54.444;18.560;2024-01-30T06:50:25;55.70;;;28.95;;
28796;SDS011;24974;54.444;18.560;2024-01-30T06:52:56;61.40;;;29.60;;
28796;SDS011;24974;54.444;18.560;2024-01-30T06:55:27;61.80;;;29.92;;
28796;SDS011;24974;54.444;18.560;2024-01-30T06:57:58;60.50;;;30.25;;
28796;SDS011;24974;54.444;18.560;2024-01-30T07:00:29;63.75;;;28.90;;
28796;SDS011;24974;54.444;18.560;2024-01-30T07:02:59;58.50;;;29.08;;
28796;SDS011;24974;54.444;18.560;2024-01-30T07:05:31;63.13;;;30.77;;
28796;SDS011;24974;54.444;18.560;2024-01-30T07:08:02;59.67;;;28.52;;
28796;SDS011;24974;54.444;18.560;2024-01-30T07:10:33;57.30;;;30.60;;
28796;SDS011;24974;54.444;18.560;2024-01-30T07:13:04;56.35;;;27.65;;
28796;SDS011;24974;54.444;18.560;2024-01-30T07:15:36;67.38;;;27.05;;
28796;SDS011;24974;54.444;18.560;2024-01-30T07:18:07;56.75;;;26.63;;
28796;SDS011;24974;54.444;18.560;2024-01-30T07:20:38;55.72;;;26.92;;
28796;SDS011;24974;54.444;18.560;2024-01-30T07:23:13;53.78;;;26.40;;
28796;SDS011;24974;54.444;18.560;2024-01-30T07:25:46;49.85;;;25.58;;
28796;SDS011;24974;54.444;18.560;2024-01-30T07:28:20;54.53;;;25.73;;
28796;SDS011;24974;54.444;18.560;2024-01-30T07:30:51;49.88;;;24.88;;
28796;SDS011;24974;54.444;18.560;2024-01-30T07:33:22;51.60;;;24.02;;
28796;SDS011;24974;54.444;18.560;2024-01-30T07:35:53;54.30;;;26.08;;
28796;SDS011;24974;54.444;18.560;2024-01-30T07:38:23;48.60;;;24.52;;
28796;SDS011;24974;54.444;18.560;2024-01-30T07:40:54;45.22;;;23.38;;
28796;SDS011;24974;54.444;18.560;2024-01-30T07:43:25;45.90;;;22.80;;
28796;SDS011;24974;54.444;18.560;2024-01-30T07:45:56;47.13;;;23.02;;
28796;SDS011;24974;54.444;18.560;2024-01-30T07:48:26;50.28;;;24.48;;
28796;SDS011;24974;54.444;18.560;2024-01-30T07:50:57;49.25;;;22.70;;
28796;SDS011;24974;54.444;18.560;2024-01-30T07:53:28;42.88;;;22.85;;
28796;SDS011;24974;54.444;18.560;2024-01-30T07:55:59;44.83;;;22.58;;
28796;SDS011;24974;54.444;18.560;2024-01-30T07:58:30;45.33;;;22.83;;
28796;SDS011;24974;54.444;18.560;2024-01-30T08:01:01;45.92;;;23.30;;
28796;SDS011;24974;54.444;18.560;2024-01-30T08:03:31;47.50;;;22.33;;
28796;SDS011;24974;54.444;18.560;2024-01-30T08:06:02;41.50;;;22.35;;
28796;SDS011;24974;54.444;18.560;2024-01-30T08:08:33;47.05;;;24.38;;
28796;SDS011;24974;54.444;18.560;2024-01-30T08:11:04;47.92;;;23.45;;
28796;SDS011;24974;54.444;18.560;2024-01-30T08:13:36;46.42;;;24.63;;
28796;SDS011;24974;54.444;18.560;2024-01-30T08:16:06;44.20;;;24.02;;
28796;SDS011;24974;54.444;18.560;2024-01-30T08:18:37;46.47;;;22.90;;
28796;SDS011;24974;54.444;18.560;2024-01-30T08:21:08;48.95;;;24.63;;
28796;SDS011;24974;54.444;18.560;2024-01-30T08:23:39;44.72;;;22.10;;
28796;SDS011;24974;54.444;18.560;2024-01-30T08:26:10;40.20;;;22.02;;
28796;SDS011;24974;54.444;18.560;2024-01-30T08:28:41;48.47;;;25.27;;
28796;SDS011;24974;54.444;18.560;2024-01-30T08:31:12;43.17;;;23.75;;
28796;SDS011;24974;54.444;18.560;2024-01-30T08:33:42;49.67;;;24.27;;
28796;SDS011;24974;54.444;18.560;2024-01-30T08:36:14;47.92;;;24.27;;
28796;SDS011;24974;54.444;18.560;2024-01-30T08:38:45;50.78;;;24.77;;
28796;SDS011;24974;54.444;18.560;2024-01-30T08:41:16;46.08;;;24.38;;
28796;SDS011;24974;54.444;18.560;2024-01-30T08:43:47;48.20;;;24.27;;
28796;SDS011;24974;54.444;18.560;2024-01-30T08:46:18;47.50;;;24.08;;
28796;SDS011;24974;54.444;18.560;2024-01-30T08:48:49;44.33;;;22.45;;
28796;SDS011;24974;54.444;18.560;2024-01-30T08:51:20;44.58;;;24.58;;
28796;SDS011;24974;54.444;18.560;2024-01-30T08:53:51;50.72;;;24.98;;
28796;SDS011;24974;54.444;18.560;2024-01-30T08:56:23;55.03;;;25.90;;
28796;SDS011;24974;54.444;18.560;2024-01-30T08:58:53;49.05;;;24.38;;
28796;SDS011;24974;54.444;18.560;2024-01-30T09:01:25;49.65;;;23.40;;
28796;SDS011;24974;54.444;18.560;2024-01-30T09:03:56;52.72;;;25.23;;
28796;SDS011;24974;54.444;18.560;2024-01-30T09:06:26;51.90;;;25.30;;
28796;SDS011;24974;54.444;18.560;2024-01-30T09:08:58;49.08;;;24.52;;
28796;SDS011;24974;54.444;18.560;2024-01-30T09:11:29;48.35;;;23.77;;
28796;SDS011;24974;54.444;18.560;2024-01-30T09:14:00;49.38;;;25.00;;
28796;SDS011;24974;54.444;18.560;2024-01-30T09:16:31;47.47;;;23.63;;
28796;SDS011;24974;54.444;18.560;2024-01-30T09:19:01;54.22;;;25.70;;
28796;SDS011;24974;54.444;18.560;2024-01-30T09:21:32;47.50;;;25.00;;
28796;SDS011;24974;54.444;18.560;2024-01-30T09:24:03;43.38;;;23.60;;
28796;SDS011;24974;54.444;18.560;2024-01-30T09:26:35;45.40;;;24.23;;
28796;SDS011;24974;54.444;18.560;2024-01-30T09:29:06;50.63;;;24.90;;
28796;SDS011;24974;54.444;18.560;2024-01-30T09:31:37;53.40;;;25.50;;
28796;SDS011;24974;54.444;18.560;2024-01-30T09:34:08;48.97;;;24.55;;
28796;SDS011;24974;54.444;18.560;2024-01-30T09:36:39;43.38;;;23.95;;
28796;SDS011;24974;54.444;18.560;2024-01-30T09:39:10;44.92;;;23.83;;
28796;SDS011;24974;54.444;18.560;2024-01-30T09:41:52;45.45;;;23.58;;
28796;SDS011;24974;54.444;18.560;2024-01-30T09:44:31;51.30;;;25.30;;
28796;SDS011;24974;54.444;18.560;2024-01-30T09:47:07;48.50;;;24.27;;
28796;SDS011;24974;54.444;18.560;2024-01-30T09:49:38;48.85;;;24.23;;
28796;SDS011;24974;54.444;18.560;2024-01-30T09:52:09;45.47;;;25.02;;
28796;SDS011;24974;54.444;18.560;2024-01-30T09:54:41;54.13;;;24.60;;
28796;SDS011;24974;54.444;18.560;2024-01-30T09:57:12;52.58;;;25.88;;
28796;SDS011;24974;54.444;18.560;2024-01-30T09:59:43;48.70;;;25.60;;
28796;SDS011;24974;54.444;18.560;2024-01-30T10:02:14;51.63;;;26.02;;
28796;SDS011;24974;54.444;18.560;2024-01-30T10:04:49;49.45;;;26.35;;
28796;SDS011;24974;54.444;18.560;2024-01-30T10:07:21;62.15;;;26.90;;
28796;SDS011;24974;54.444;18.560;2024-01-30T10:09:52;66.75;;;28.25;;
28796;SDS011;24974;54.444;18.560;2024-01-30T10:12:25;61.10;;;28.33;;
28796;SDS011;24974;54.444;18.560;2024-01-30T10:14:57;59.25;;;28.58;;
28796;SDS011;24974;54.444;18.560;2024-01-30T10:17:28;60.25;;;27.67;;
28796;SDS011;24974;54.444;18.560;2024-01-30T10:19:59;51.22;;;25.80;;
28796;SDS011;24974;54.444;18.560;2024-01-30T10:22:30;54.15;;;27.42;;
28796;SDS011;24974;54.444;18.560;2024-01-30T10:25:01;53.45;;;27.40;;
28796;SDS011;24974;54.444;18.560;2024-01-30T10:27:32;58.35;;;27.77;;
28796;SDS011;24974;54.444;18.560;2024-01-30T10:30:03;60.83;;;28.73;;
28796;SDS011;24974;54.444;18.560;2024-01-30T10:32:35;60.00;;;28.15;;
28796;SDS011;24974;54.444;18.560;2024-01-30T10:35:06;57.47;;;28.25;;
28796;SDS011;24974;54.444;18.560;2024-01-30T10:37:37;57.58;;;30.27;;
28796;SDS011;24974;54.444;18.560;2024-01-30T10:40:08;59.17;;;28.90;;
28796;SDS011;24974;54.444;18.560;2024-01-30T10:42:43;71.00;;;28.88;;
28796;SDS011;24974;54.444;18.560;2024-01-30T10:45:15;61.72;;;26.48;;
28796;SDS011;24974;54.444;18.560;2024-01-30T10:47:49;66.35;;;26.20;;
28796;SDS011;24974;54.444;18.560;2024-01-30T10:50:24;68.03;;;27.63;;
28796;SDS011;24974;54.444;18.560;2024-01-30T10:52:55;54.30;;;24.63;;
28796;SDS011;24974;54.444;18.560;2024-01-30T10:55:27;66.70;;;24.58;;
28796;SDS011;24974;54.444;18.560;2024-01-30T10:58:00;54.65;;;24.27;;
28796;SDS011;24974;54.444;18.560;2024-01-30T11:00:31;60.03;;;25.17;;
28796;SDS011;24974;54.444;18.560;2024-01-30T11:03:04;68.68;;;28.50;;
28796;SDS011;24974;54.444;18.560;2024-01-30T11:05:35;68.25;;;26.50;;
28796;SDS011;24974;54.444;18.560;2024-01-30T11:08:13;46.70;;;23.20;;
28796;SDS011;24974;54.444;18.560;2024-01-30T11:10:48;49.13;;;21.77;;
28796;SDS011;24974;54.444;18.560;2024-01-30T11:13:19;45.65;;;21.05;;
28796;SDS011;24974;54.444;18.560;2024-01-30T11:15:50;46.45;;;22.60;;
28796;SDS011;24974;54.444;18.560;2024-01-30T11:18:24;52.25;;;25.13;;
28796;SDS011;24974;54.444;18.560;2024-01-30T11:20:56;62.30;;;28.95;;
28796;SDS011;24974;54.444;18.560;2024-01-30T11:23:28;60.92;;;29.85;;
28796;SDS011;24974;54.444;18.560;2024-01-30T11:26:00;56.05;;;28.80;;
28796;SDS011;24974;54.444;18.560;2024-01-30T11:28:35;60.15;;;29.15;;
28796;SDS011;24974;54.444;18.560;2024-01-30T11:31:08;69.07;;;29.67;;
28796;SDS011;24974;54.444;18.560;2024-01-30T11:33:38;60.05;;;30.40;;
28796;SDS011;24974;54.444;18.560;2024-01-30T11:36:09;59.42;;;32.33;;
28796;SDS011;24974;54.444;18.560;2024-01-30T11:38:43;66.38;;;32.83;;
28796;SDS011;24974;54.444;18.560;2024-01-30T11:41:15;54.28;;;31.40;;
28796;SDS011;24974;54.444;18.560;2024-01-30T11:43:52;63.42;;;31.85;;
28796;SDS011;24974;54.444;18.560;2024-01-30T11:46:24;61.28;;;32.70;;
28796;SDS011;24974;54.444;18.560;2024-01-30T11:48:55;64.05;;;31.80;;
28796;SDS011;24974;54.444;18.560;2024-01-30T11:51:26;63.45;;;32.78;;
28796;SDS011;24974;54.444;18.560;2024-01-30T11:53:57;63.53;;;33.03;;
28796;SDS011;24974;54.444;18.560;2024-01-30T11:56:28;70.93;;;33.03;;
28796;SDS011;24974;54.444;18.560;2024-01-30T11:58:59;61.35;;;33.30;;
28796;SDS011;24974;54.444;18.560;2024-01-30T12:01:31;64.63;;;33.13;;
28796;SDS011;24974;54.444;18.560;2024-01-30T12:04:03;70.60;;;34.33;;
28796;SDS011;24974;54.444;18.560;2024-01-30T12:06:38;67.95;;;34.80;;
28796;SDS011;24974;54.444;18.560;2024-01-30T12:09:10;65.95;;;34.10;;
28796;SDS011;24974;54.444;18.560;2024-01-30T12:11:44;64.55;;;33.78;;
28796;SDS011;24974;54.444;18.560;2024-01-30T12:14:16;75.72;;;34.63;;
28796;SDS011;24974;54.444;18.560;2024-01-30T12:16:48;66.70;;;34.55;;
28796;SDS011;24974;54.444;18.560;2024-01-30T12:19:24;69.53;;;33.97;;
28796;SDS011;24974;54.444;18.560;2024-01-30T12:21:58;76.88;;;34.35;;
28796;SDS011;24974;54.444;18.560;2024-01-30T12:24:29;72.88;;;35.22;;
28796;SDS011;24974;54.444;18.560;2024-01-30T12:27:03;65.00;;;33.53;;
28796;SDS011;24974;54.444;18.560;2024-01-30T12:29:34;69.90;;;34.20;;
28796;SDS011;24974;54.444;18.560;2024-01-30T12:32:05;66.43;;;33.47;;
28796;SDS011;24974;54.444;18.560;2024-01-30T12:34:40;64.80;;;32.83;;
28796;SDS011;24974;54.444;18.560;2024-01-30T12:37:12;59.45;;;30.05;;
28796;SDS011;24974;54.444;18.560;2024-01-30T12:39:44;67.15;;;31.00;;
28796;SDS011;24974;54.444;18.560;2024-01-30T12:42:14;61.28;;;32.78;;
28796;SDS011;24974;54.444;18.560;2024-01-30T12:44:45;59.00;;;31.00;;
28796;SDS011;24974;54.444;18.560;2024-01-30T12:47:16;84.55;;;33.08;;
28796;SDS011;24974;54.444;18.560;2024-01-30T12:49:47;70.05;;;32.03;;
28796;SDS011;24974;54.444;18.560;2024-01-30T12:52:18;60.83;;;30.63;;
28796;SDS011;24974;54.444;18.560;2024-01-30T12:54:49;61.70;;;30.67;;
28796;SDS011;24974;54.444;18.560;2024-01-30T12:57:20;60.08;;;30.30;;
28796;SDS011;24974;54.444;18.560;2024-01-30T12:59:51;60.00;;;30.02;;
28796;SDS011;24974;54.444;18.560;2024-01-30T13:02:21;55.75;;;31.00;;
28796;SDS011;24974;54.444;18.560;2024-01-30T13:04:54;58.97;;;29.17;;
28796;SDS011;24974;54.444;18.560;2024-01-30T13:07:24;69.10;;;31.17;;
28796;SDS011;24974;54.444;18.560;2024-01-30T13:09:56;61.10;;;30.52;;
28796;SDS011;24974;54.444;18.560;2024-01-30T13:12:33;58.70;;;29.73;;
28796;SDS011;24974;54.444;18.560;2024-01-30T13:15:04;65.88;;;28.25;;
28796;SDS011;24974;54.444;18.560;2024-01-30T13:17:35;51.58;;;26.73;;
28796;SDS011;24974;54.444;18.560;2024-01-30T13:20:06;53.17;;;26.10;;
28796;SDS011;24974;54.444;18.560;2024-01-30T13:22:38;45.55;;;23.65;;
28796;SDS011;24974;54.444;18.560;2024-01-30T13:25:09;38.90;;;20.67;;
28796;SDS011;24974;54.444;18.560;2024-01-30T13:27:40;36.13;;;20.85;;
28796;SDS011;24974;54.444;18.560;2024-01-30T13:30:11;36.13;;;20.77;;
28796;SDS011;24974;54.444;18.560;2024-01-30T13:32:42;38.72;;;20.55;;
28796;SDS011;24974;54.444;18.560;2024-01-30T13:35:14;35.35;;;20.20;;
28796;SDS011;24974;54.444;18.560;2024-01-30T13:37:45;36.22;;;20.55;;
28796;SDS011;24974;54.444;18.560;2024-01-30T13:40:18;35.78;;;20.65;;
28796;SDS011;24974;54.444;18.560;2024-01-30T13:42:49;37.80;;;20.65;;
28796;SDS011;24974;54.444;18.560;2024-01-30T13:45:19;36.33;;;19.30;;
28796;SDS011;24974;54.444;18.560;2024-01-30T13:47:51;38.05;;;21.08;;
28796;SDS011;24974;54.444;18.560;2024-01-30T13:50:22;38.17;;;21.48;;
28796;SDS011;24974;54.444;18.560;2024-01-30T13:52:52;37.92;;;21.08;;
28796;SDS011;24974;54.444;18.560;2024-01-30T13:55:23;33.65;;;20.65;;
28796;SDS011;24974;54.444;18.560;2024-01-30T13:57:54;45.05;;;21.55;;
28796;SDS011;24974;54.444;18.560;2024-01-30T14:00:26;36.20;;;21.23;;
28796;SDS011;24974;54.444;18.560;2024-01-30T14:02:57;37.65;;;21.33;;
28796;SDS011;24974;54.444;18.560;2024-01-30T14:05:29;36.40;;;20.58;;
28796;SDS011;24974;54.444;18.560;2024-01-30T14:08:00;38.53;;;20.60;;
28796;SDS011;24974;54.444;18.560;2024-01-30T14:10:31;36.63;;;20.77;;
28796;SDS011;24974;54.444;18.560;2024-01-30T14:13:02;44.25;;;20.73;;
28796;SDS011;24974;54.444;18.560;2024-01-30T14:15:32;34.78;;;19.92;;
28796;SDS011;24974;54.444;18.560;2024-01-30T14:18:04;38.53;;;20.40;;
28796;SDS011;24974;54.444;18.560;2024-01-30T14:20:35;32.45;;;18.80;;
28796;SDS011;24974;54.444;18.560;2024-01-30T14:23:06;37.13;;;19.00;;
28796;SDS011;24974;54.444;18.560;2024-01-30T14:25:38;28.83;;;17.55;;
28796;SDS011;24974;54.444;18.560;2024-01-30T14:28:09;34.40;;;18.70;;
28796;SDS011;24974;54.444;18.560;2024-01-30T14:30:40;34.67;;;18.10;;
28796;SDS011;24974;54.444;18.560;2024-01-30T14:33:11;39.50;;;19.02;;